sensor_id;sensor_type;location;lat;lon;timestamp;P1;durP1;ratioP1;P2;durP2;ratioP2
36301;SDS011;22334;53.022;18.606;2023-02-23T00:01:24;14.15;;;7.28;;
36301;SDS011;22334;53.022;18.606;2023-02-23T00:03:52;16.30;;;7.32;;
36301;SDS011;22334;53.022;18.606;2023-02-23T00:06:20;15.33;;;7.00;;
36301;SDS011;22334;53.022;18.606;2023-02-23T00:08:45;16.48;;;6.90;;
36301;SDS011;22334;53.022;18.606;2023-02-23T00:11:16;15.37;;;6.90;;
36301;SDS011;22334;53.022;18.606;2023-02-23T00:13:42;15.32;;;7.45;;
36301;SDS011;22334;53.022;18.606;2023-02-23T00:16:11;14.30;;;6.97;;
36301;SDS011;22334;53.022;18.606;2023-02-23T00:18:41;16.47;;;7.53;;
36301;SDS011;22334;53.022;18.606;2023-02-23T00:21:22;16.30;;;7.90;;
36301;SDS011;22334;53.022;18.606;2023-02-23T00:23:56;15.30;;;7.33;;
36301;SDS011;22334;53.022;18.606;2023-02-23T00:26:24;15.60;;;7.40;;
36301;SDS011;22334;53.022;18.606;2023-02-23T00:28:54;12.23;;;6.57;;
36301;SDS011;22334;53.022;18.606;2023-02-23T00:31:20;14.53;;;6.90;;
36301;SDS011;22334;53.022;18.606;2023-02-23T00:33:49;15.13;;;7.30;;
36301;SDS011;22334;53.022;18.606;2023-02-23T00:36:19;15.55;;;6.97;;
36301;SDS011;22334;53.022;18.606;2023-02-23T00:38:46;15.43;;;7.33;;
36301;SDS011;22334;53.022;18.606;2023-02-23T00:41:12;14.57;;;6.63;;
36301;SDS011;22334;53.022;18.606;2023-02-23T00:43:44;15.27;;;7.30;;
36301;SDS011;22334;53.022;18.606;2023-02-23T00:46:11;14.70;;;6.37;;
36301;SDS011;22334;53.022;18.606;2023-02-23T00:48:45;15.90;;;7.43;;
36301;SDS011;22334;53.022;18.606;2023-02-23T00:51:11;14.17;;;6.77;;
36301;SDS011;22334;53.022;18.606;2023-02-23T00:53:37;14.07;;;6.87;;
36301;SDS011;22334;53.022;18.606;2023-02-23T00:56:03;12.70;;;6.00;;
36301;SDS011;22334;53.022;18.606;2023-02-23T00:58:29;11.30;;;6.23;;
36301;SDS011;22334;53.022;18.606;2023-02-23T01:00:55;14.80;;;6.53;;
36301;SDS011;22334;53.022;18.606;2023-02-23T01:03:23;14.63;;;6.47;;
36301;SDS011;22334;53.022;18.606;2023-02-23T01:05:49;13.77;;;6.70;;
36301;SDS011;22334;53.022;18.606;2023-02-23T01:08:15;13.50;;;6.40;;
36301;SDS011;22334;53.022;18.606;2023-02-23T01:10:41;14.93;;;6.83;;
36301;SDS011;22334;53.022;18.606;2023-02-23T01:13:08;12.83;;;6.23;;
36301;SDS011;22334;53.022;18.606;2023-02-23T01:15:39;12.00;;;6.50;;
36301;SDS011;22334;53.022;18.606;2023-02-23T01:18:06;15.07;;;6.27;;
36301;SDS011;22334;53.022;18.606;2023-02-23T01:20:33;13.48;;;6.60;;
36301;SDS011;22334;53.022;18.606;2023-02-23T01:23:00;13.77;;;6.83;;
36301;SDS011;22334;53.022;18.606;2023-02-23T01:25:26;16.10;;;6.93;;
36301;SDS011;22334;53.022;18.606;2023-02-23T01:27:53;14.80;;;6.50;;
36301;SDS011;22334;53.022;18.606;2023-02-23T01:30:19;14.53;;;6.87;;
36301;SDS011;22334;53.022;18.606;2023-02-23T01:32:45;14.23;;;7.10;;
36301;SDS011;22334;53.022;18.606;2023-02-23T01:35:11;16.07;;;6.93;;
36301;SDS011;22334;53.022;18.606;2023-02-23T01:37:37;15.10;;;6.57;;
36301;SDS011;22334;53.022;18.606;2023-02-23T01:40:05;13.67;;;6.13;;
36301;SDS011;22334;53.022;18.606;2023-02-23T01:42:38;13.00;;;6.93;;
36301;SDS011;22334;53.022;18.606;2023-02-23T01:48:05;13.87;;;6.73;;
36301;SDS011;22334;53.022;18.606;2023-02-23T01:50:38;14.33;;;6.27;;
36301;SDS011;22334;53.022;18.606;2023-02-23T01:53:13;13.63;;;5.90;;
36301;SDS011;22334;53.022;18.606;2023-02-23T01:55:40;13.20;;;6.80;;
36301;SDS011;22334;53.022;18.606;2023-02-23T01:58:07;14.10;;;7.20;;
36301;SDS011;22334;53.022;18.606;2023-02-23T02:00:39;16.27;;;6.63;;
36301;SDS011;22334;53.022;18.606;2023-02-23T02:03:09;21.25;;;6.85;;
36301;SDS011;22334;53.022;18.606;2023-02-23T02:05:39;14.07;;;6.63;;
36301;SDS011;22334;53.022;18.606;2023-02-23T02:08:06;13.43;;;6.77;;
36301;SDS011;22334;53.022;18.606;2023-02-23T02:10:34;12.90;;;6.25;;
36301;SDS011;22334;53.022;18.606;2023-02-23T02:13:03;15.15;;;6.80;;
36301;SDS011;22334;53.022;18.606;2023-02-23T02:15:30;15.37;;;7.00;;
36301;SDS011;22334;53.022;18.606;2023-02-23T02:21:01;14.07;;;6.57;;
36301;SDS011;22334;53.022;18.606;2023-02-23T02:42:59;15.10;;;7.47;;
36301;SDS011;22334;53.022;18.606;2023-02-23T02:45:42;14.40;;;7.20;;
36301;SDS011;22334;53.022;18.606;2023-02-23T02:56:21;14.83;;;7.37;;
36301;SDS011;22334;53.022;18.606;2023-02-23T02:58:50;13.38;;;6.97;;
36301;SDS011;22334;53.022;18.606;2023-02-23T03:01:17;15.60;;;7.97;;
36301;SDS011;22334;53.022;18.606;2023-02-23T03:04:03;15.97;;;7.43;;
36301;SDS011;22334;53.022;18.606;2023-02-23T03:07:04;16.70;;;7.13;;
36301;SDS011;22334;53.022;18.606;2023-02-23T03:15:27;19.30;;;8.07;;
36301;SDS011;22334;53.022;18.606;2023-02-23T03:18:16;14.27;;;7.40;;
36301;SDS011;22334;53.022;18.606;2023-02-23T03:21:11;17.60;;;8.33;;
36301;SDS011;22334;53.022;18.606;2023-02-23T03:24:22;15.43;;;7.93;;
36301;SDS011;22334;53.022;18.606;2023-02-23T03:27:40;17.70;;;8.40;;
36301;SDS011;22334;53.022;18.606;2023-02-23T03:30:36;16.80;;;8.33;;
36301;SDS011;22334;53.022;18.606;2023-02-23T03:33:34;16.83;;;8.13;;
36301;SDS011;22334;53.022;18.606;2023-02-23T03:36:26;17.00;;;8.17;;
36301;SDS011;22334;53.022;18.606;2023-02-23T03:42:01;18.05;;;8.40;;
36301;SDS011;22334;53.022;18.606;2023-02-23T03:44:48;14.97;;;8.10;;
36301;SDS011;22334;53.022;18.606;2023-02-23T03:47:34;16.10;;;8.33;;
36301;SDS011;22334;53.022;18.606;2023-02-23T03:50:22;17.57;;;8.30;;
36301;SDS011;22334;53.022;18.606;2023-02-23T03:53:10;19.97;;;8.97;;
36301;SDS011;22334;53.022;18.606;2023-02-23T03:55:54;17.80;;;8.67;;
36301;SDS011;22334;53.022;18.606;2023-02-23T03:58:43;18.17;;;8.70;;
36301;SDS011;22334;53.022;18.606;2023-02-23T04:01:29;16.60;;;8.52;;
36301;SDS011;22334;53.022;18.606;2023-02-23T04:04:13;20.37;;;9.07;;
36301;SDS011;22334;53.022;18.606;2023-02-23T04:06:58;19.97;;;8.40;;
36301;SDS011;22334;53.022;18.606;2023-02-23T04:09:44;15.73;;;7.93;;
36301;SDS011;22334;53.022;18.606;2023-02-23T04:15:25;15.77;;;8.07;;
36301;SDS011;22334;53.022;18.606;2023-02-23T04:17:53;14.97;;;8.00;;
36301;SDS011;22334;53.022;18.606;2023-02-23T04:20:19;16.50;;;8.47;;
36301;SDS011;22334;53.022;18.606;2023-02-23T04:22:45;17.17;;;8.40;;
36301;SDS011;22334;53.022;18.606;2023-02-23T04:25:10;16.60;;;8.50;;
36301;SDS011;22334;53.022;18.606;2023-02-23T04:27:36;16.10;;;7.97;;
36301;SDS011;22334;53.022;18.606;2023-02-23T04:30:02;19.10;;;8.97;;
36301;SDS011;22334;53.022;18.606;2023-02-23T04:32:28;17.20;;;8.10;;
36301;SDS011;22334;53.022;18.606;2023-02-23T04:34:54;20.17;;;10.57;;
36301;SDS011;22334;53.022;18.606;2023-02-23T04:37:20;15.20;;;7.87;;
36301;SDS011;22334;53.022;18.606;2023-02-23T04:39:45;16.93;;;8.23;;
36301;SDS011;22334;53.022;18.606;2023-02-23T04:42:14;17.00;;;8.17;;
36301;SDS011;22334;53.022;18.606;2023-02-23T04:44:40;17.37;;;8.37;;
36301;SDS011;22334;53.022;18.606;2023-02-23T04:47:05;15.27;;;7.83;;
36301;SDS011;22334;53.022;18.606;2023-02-23T04:49:31;16.47;;;7.63;;
36301;SDS011;22334;53.022;18.606;2023-02-23T04:51:56;16.27;;;7.70;;
36301;SDS011;22334;53.022;18.606;2023-02-23T04:54:22;16.37;;;8.23;;
36301;SDS011;22334;53.022;18.606;2023-02-23T04:56:48;13.93;;;7.47;;
36301;SDS011;22334;53.022;18.606;2023-02-23T04:59:13;15.83;;;7.57;;
36301;SDS011;22334;53.022;18.606;2023-02-23T05:01:38;19.63;;;7.73;;
36301;SDS011;22334;53.022;18.606;2023-02-23T05:04:04;17.40;;;8.43;;
36301;SDS011;22334;53.022;18.606;2023-02-23T05:06:32;18.73;;;8.33;;
36301;SDS011;22334;53.022;18.606;2023-02-23T05:08:58;18.37;;;7.53;;
36301;SDS011;22334;53.022;18.606;2023-02-23T05:11:23;15.43;;;7.83;;
36301;SDS011;22334;53.022;18.606;2023-02-23T05:13:50;15.33;;;7.60;;
36301;SDS011;22334;53.022;18.606;2023-02-23T05:16:16;16.93;;;8.40;;
36301;SDS011;22334;53.022;18.606;2023-02-23T05:18:42;13.60;;;7.10;;
36301;SDS011;22334;53.022;18.606;2023-02-23T05:21:07;18.57;;;8.80;;
36301;SDS011;22334;53.022;18.606;2023-02-23T05:23:36;18.50;;;8.73;;
36301;SDS011;22334;53.022;18.606;2023-02-23T05:26:03;16.27;;;8.20;;
36301;SDS011;22334;53.022;18.606;2023-02-23T05:28:30;16.47;;;7.07;;
36301;SDS011;22334;53.022;18.606;2023-02-23T05:30:57;16.37;;;8.20;;
36301;SDS011;22334;53.022;18.606;2023-02-23T05:33:23;12.90;;;6.77;;
36301;SDS011;22334;53.022;18.606;2023-02-23T05:35:50;16.97;;;7.80;;
36301;SDS011;22334;53.022;18.606;2023-02-23T05:38:16;18.80;;;8.37;;
36301;SDS011;22334;53.022;18.606;2023-02-23T05:40:41;15.13;;;7.60;;
36301;SDS011;22334;53.022;18.606;2023-02-23T05:43:07;20.60;;;7.97;;
36301;SDS011;22334;53.022;18.606;2023-02-23T05:45:32;16.83;;;7.33;;
36301;SDS011;22334;53.022;18.606;2023-02-23T05:47:58;17.10;;;7.87;;
36301;SDS011;22334;53.022;18.606;2023-02-23T05:50:23;16.60;;;7.83;;
36301;SDS011;22334;53.022;18.606;2023-02-23T05:52:49;14.03;;;6.67;;
36301;SDS011;22334;53.022;18.606;2023-02-23T05:55:15;16.10;;;7.90;;
36301;SDS011;22334;53.022;18.606;2023-02-23T05:57:41;17.13;;;8.27;;
36301;SDS011;22334;53.022;18.606;2023-02-23T06:00:07;16.53;;;8.03;;
36301;SDS011;22334;53.022;18.606;2023-02-23T06:02:34;21.80;;;8.13;;
36301;SDS011;22334;53.022;18.606;2023-02-23T06:05:00;16.43;;;8.00;;
36301;SDS011;22334;53.022;18.606;2023-02-23T06:07:26;19.27;;;8.50;;
36301;SDS011;22334;53.022;18.606;2023-02-23T06:09:51;14.60;;;7.37;;
36301;SDS011;22334;53.022;18.606;2023-02-23T06:12:17;18.73;;;10.07;;
36301;SDS011;22334;53.022;18.606;2023-02-23T06:14:42;19.73;;;8.03;;
36301;SDS011;22334;53.022;18.606;2023-02-23T06:17:07;15.10;;;7.80;;
36301;SDS011;22334;53.022;18.606;2023-02-23T06:19:33;15.30;;;7.87;;
36301;SDS011;22334;53.022;18.606;2023-02-23T06:21:58;16.20;;;7.63;;
36301;SDS011;22334;53.022;18.606;2023-02-23T06:24:24;15.43;;;7.77;;
36301;SDS011;22334;53.022;18.606;2023-02-23T06:26:50;15.47;;;7.23;;
36301;SDS011;22334;53.022;18.606;2023-02-23T06:29:15;16.33;;;7.73;;
36301;SDS011;22334;53.022;18.606;2023-02-23T06:31:41;16.67;;;8.50;;
36301;SDS011;22334;53.022;18.606;2023-02-23T06:34:07;16.87;;;8.50;;
36301;SDS011;22334;53.022;18.606;2023-02-23T06:36:33;22.37;;;8.13;;
36301;SDS011;22334;53.022;18.606;2023-02-23T06:38:59;13.87;;;7.77;;
36301;SDS011;22334;53.022;18.606;2023-02-23T06:41:25;18.23;;;8.03;;
36301;SDS011;22334;53.022;18.606;2023-02-23T06:43:51;14.73;;;7.57;;
36301;SDS011;22334;53.022;18.606;2023-02-23T06:46:17;15.97;;;8.17;;
36301;SDS011;22334;53.022;18.606;2023-02-23T06:48:43;16.20;;;7.50;;
36301;SDS011;22334;53.022;18.606;2023-02-23T06:51:08;14.73;;;7.00;;
36301;SDS011;22334;53.022;18.606;2023-02-23T06:53:34;16.63;;;7.47;;
36301;SDS011;22334;53.022;18.606;2023-02-23T06:56:00;16.77;;;8.13;;
36301;SDS011;22334;53.022;18.606;2023-02-23T06:58:25;19.77;;;7.63;;
36301;SDS011;22334;53.022;18.606;2023-02-23T07:00:54;16.13;;;7.30;;
36301;SDS011;22334;53.022;18.606;2023-02-23T07:03:20;14.77;;;8.00;;
36301;SDS011;22334;53.022;18.606;2023-02-23T07:05:49;16.67;;;7.68;;
36301;SDS011;22334;53.022;18.606;2023-02-23T07:08:16;18.50;;;7.73;;
36301;SDS011;22334;53.022;18.606;2023-02-23T07:10:42;15.23;;;7.67;;
36301;SDS011;22334;53.022;18.606;2023-02-23T07:13:08;16.50;;;8.07;;
36301;SDS011;22334;53.022;18.606;2023-02-23T07:15:36;18.70;;;7.07;;
36301;SDS011;22334;53.022;18.606;2023-02-23T07:18:02;21.65;;;8.23;;
36301;SDS011;22334;53.022;18.606;2023-02-23T07:20:27;17.10;;;8.18;;
36301;SDS011;22334;53.022;18.606;2023-02-23T07:22:54;21.35;;;13.18;;
36301;SDS011;22334;53.022;18.606;2023-02-23T07:25:22;14.90;;;7.03;;
36301;SDS011;22334;53.022;18.606;2023-02-23T07:27:47;19.75;;;8.75;;
36301;SDS011;22334;53.022;18.606;2023-02-23T07:30:13;19.33;;;8.07;;
36301;SDS011;22334;53.022;18.606;2023-02-23T07:32:39;18.10;;;8.77;;
36301;SDS011;22334;53.022;18.606;2023-02-23T07:35:05;24.02;;;8.32;;
36301;SDS011;22334;53.022;18.606;2023-02-23T07:37:31;19.60;;;8.80;;
36301;SDS011;22334;53.022;18.606;2023-02-23T07:39:56;17.38;;;8.30;;
36301;SDS011;22334;53.022;18.606;2023-02-23T07:42:22;16.58;;;8.52;;
36301;SDS011;22334;53.022;18.606;2023-02-23T07:44:47;19.73;;;9.30;;
36301;SDS011;22334;53.022;18.606;2023-02-23T07:47:13;20.52;;;9.52;;
36301;SDS011;22334;53.022;18.606;2023-02-23T07:49:38;19.77;;;9.87;;
36301;SDS011;22334;53.022;18.606;2023-02-23T07:52:03;17.48;;;8.35;;
36301;SDS011;22334;53.022;18.606;2023-02-23T07:54:32;20.25;;;9.15;;
36301;SDS011;22334;53.022;18.606;2023-02-23T07:56:58;13.07;;;6.90;;
36301;SDS011;22334;53.022;18.606;2023-02-23T07:59:24;17.55;;;8.65;;
36301;SDS011;22334;53.022;18.606;2023-02-23T08:01:50;21.20;;;8.82;;
36301;SDS011;22334;53.022;18.606;2023-02-23T08:04:16;18.33;;;9.48;;
36301;SDS011;22334;53.022;18.606;2023-02-23T08:06:42;25.13;;;9.68;;
36301;SDS011;22334;53.022;18.606;2023-02-23T08:09:07;19.00;;;9.75;;
36301;SDS011;22334;53.022;18.606;2023-02-23T08:11:33;22.27;;;10.57;;
36301;SDS011;22334;53.022;18.606;2023-02-23T08:13:58;16.25;;;8.52;;
36301;SDS011;22334;53.022;18.606;2023-02-23T08:16:31;27.38;;;10.00;;
36301;SDS011;22334;53.022;18.606;2023-02-23T08:18:57;23.60;;;9.73;;
36301;SDS011;22334;53.022;18.606;2023-02-23T08:21:23;18.00;;;9.43;;
36301;SDS011;22334;53.022;18.606;2023-02-23T08:23:49;17.98;;;9.48;;
36301;SDS011;22334;53.022;18.606;2023-02-23T08:26:15;19.48;;;9.77;;
36301;SDS011;22334;53.022;18.606;2023-02-23T08:28:41;22.38;;;9.95;;
36301;SDS011;22334;53.022;18.606;2023-02-23T08:31:09;26.85;;;10.18;;
36301;SDS011;22334;53.022;18.606;2023-02-23T08:33:36;19.02;;;9.90;;
36301;SDS011;22334;53.022;18.606;2023-02-23T08:36:02;19.15;;;10.52;;
36301;SDS011;22334;53.022;18.606;2023-02-23T08:38:29;24.58;;;10.68;;
36301;SDS011;22334;53.022;18.606;2023-02-23T08:41:06;18.55;;;10.10;;
36301;SDS011;22334;53.022;18.606;2023-02-23T08:43:37;18.92;;;9.57;;
36301;SDS011;22334;53.022;18.606;2023-02-23T08:46:04;24.77;;;10.00;;
36301;SDS011;22334;53.022;18.606;2023-02-23T08:48:32;17.27;;;8.63;;
36301;SDS011;22334;53.022;18.606;2023-02-23T08:51:05;22.73;;;10.77;;
36301;SDS011;22334;53.022;18.606;2023-02-23T08:53:32;24.42;;;9.40;;
36301;SDS011;22334;53.022;18.606;2023-02-23T08:55:59;17.88;;;9.93;;
36301;SDS011;22334;53.022;18.606;2023-02-23T08:58:26;21.83;;;10.57;;
36301;SDS011;22334;53.022;18.606;2023-02-23T09:00:53;22.58;;;9.80;;
36301;SDS011;22334;53.022;18.606;2023-02-23T09:03:18;19.33;;;9.95;;
36301;SDS011;22334;53.022;18.606;2023-02-23T09:05:47;19.38;;;10.13;;
36301;SDS011;22334;53.022;18.606;2023-02-23T09:08:55;19.55;;;9.93;;
36301;SDS011;22334;53.022;18.606;2023-02-23T09:11:21;22.55;;;11.00;;
36301;SDS011;22334;53.022;18.606;2023-02-23T09:13:47;20.30;;;10.45;;
36301;SDS011;22334;53.022;18.606;2023-02-23T09:16:17;21.23;;;10.38;;
36301;SDS011;22334;53.022;18.606;2023-02-23T09:19:03;24.55;;;10.63;;
36301;SDS011;22334;53.022;18.606;2023-02-23T09:21:29;20.95;;;10.20;;
36301;SDS011;22334;53.022;18.606;2023-02-23T09:24:10;18.70;;;10.07;;
36301;SDS011;22334;53.022;18.606;2023-02-23T09:26:36;19.52;;;10.43;;
36301;SDS011;22334;53.022;18.606;2023-02-23T09:29:04;16.77;;;9.77;;
36301;SDS011;22334;53.022;18.606;2023-02-23T09:31:31;27.15;;;11.32;;
36301;SDS011;22334;53.022;18.606;2023-02-23T09:33:58;23.90;;;9.82;;
36301;SDS011;22334;53.022;18.606;2023-02-23T09:36:25;18.88;;;10.48;;
36301;SDS011;22334;53.022;18.606;2023-02-23T09:38:52;22.08;;;10.93;;
36301;SDS011;22334;53.022;18.606;2023-02-23T09:44:01;20.33;;;10.27;;
36301;SDS011;22334;53.022;18.606;2023-02-23T09:49:14;22.65;;;9.75;;
36301;SDS011;22334;53.022;18.606;2023-02-23T09:51:44;22.95;;;10.50;;
36301;SDS011;22334;53.022;18.606;2023-02-23T09:54:12;19.80;;;10.40;;
36301;SDS011;22334;53.022;18.606;2023-02-23T09:56:40;19.92;;;10.23;;
36301;SDS011;22334;53.022;18.606;2023-02-23T09:59:15;20.33;;;10.30;;
36301;SDS011;22334;53.022;18.606;2023-02-23T10:01:51;20.73;;;9.43;;
36301;SDS011;22334;53.022;18.606;2023-02-23T10:04:30;16.95;;;8.90;;
36301;SDS011;22334;53.022;18.606;2023-02-23T10:15:51;20.15;;;10.13;;
36301;SDS011;22334;53.022;18.606;2023-02-23T10:24:08;26.50;;;10.75;;
36301;SDS011;22334;53.022;18.606;2023-02-23T10:26:48;19.65;;;10.32;;
36301;SDS011;22334;53.022;18.606;2023-02-23T10:29:38;23.40;;;11.85;;
36301;SDS011;22334;53.022;18.606;2023-02-23T10:32:46;25.63;;;12.40;;
36301;SDS011;22334;53.022;18.606;2023-02-23T10:35:04;20.58;;;10.73;;
36301;SDS011;22334;53.022;18.606;2023-02-23T10:37:54;19.98;;;10.57;;
36301;SDS011;22334;53.022;18.606;2023-02-23T10:40:27;19.83;;;10.85;;
36301;SDS011;22334;53.022;18.606;2023-02-23T10:43:58;24.65;;;11.68;;
36301;SDS011;22334;53.022;18.606;2023-02-23T10:47:00;22.48;;;11.20;;
36301;SDS011;22334;53.022;18.606;2023-02-23T10:49:31;21.15;;;10.93;;
36301;SDS011;22334;53.022;18.606;2023-02-23T10:52:03;24.88;;;12.27;;
36301;SDS011;22334;53.022;18.606;2023-02-23T10:54:35;28.35;;;11.50;;
36301;SDS011;22334;53.022;18.606;2023-02-23T10:57:04;26.98;;;13.45;;
36301;SDS011;22334;53.022;18.606;2023-02-23T10:59:31;27.33;;;11.35;;
36301;SDS011;22334;53.022;18.606;2023-02-23T11:01:57;22.05;;;11.45;;
36301;SDS011;22334;53.022;18.606;2023-02-23T11:04:24;24.55;;;11.63;;
36301;SDS011;22334;53.022;18.606;2023-02-23T11:07:04;24.83;;;12.32;;
36301;SDS011;22334;53.022;18.606;2023-02-23T11:09:38;25.30;;;12.23;;
36301;SDS011;22334;53.022;18.606;2023-02-23T11:14:53;24.65;;;12.57;;
36301;SDS011;22334;53.022;18.606;2023-02-23T11:17:41;22.45;;;11.70;;
36301;SDS011;22334;53.022;18.606;2023-02-23T11:22:59;24.90;;;12.43;;
36301;SDS011;22334;53.022;18.606;2023-02-23T11:25:29;26.13;;;12.10;;
36301;SDS011;22334;53.022;18.606;2023-02-23T11:27:55;26.02;;;11.88;;
36301;SDS011;22334;53.022;18.606;2023-02-23T11:30:22;23.95;;;11.65;;
36301;SDS011;22334;53.022;18.606;2023-02-23T11:32:50;21.25;;;11.75;;
36301;SDS011;22334;53.022;18.606;2023-02-23T11:37:46;23.17;;;12.77;;
36301;SDS011;22334;53.022;18.606;2023-02-23T11:40:29;21.42;;;12.02;;
36301;SDS011;22334;53.022;18.606;2023-02-23T11:45:43;23.20;;;12.32;;
36301;SDS011;22334;53.022;18.606;2023-02-23T11:48:21;23.27;;;12.15;;
36301;SDS011;22334;53.022;18.606;2023-02-23T11:50:49;25.60;;;12.48;;
36301;SDS011;22334;53.022;18.606;2023-02-23T11:53:17;26.27;;;11.90;;
36301;SDS011;22334;53.022;18.606;2023-02-23T11:55:46;27.17;;;13.15;;
36301;SDS011;22334;53.022;18.606;2023-02-23T11:58:22;24.13;;;12.40;;
36301;SDS011;22334;53.022;18.606;2023-02-23T12:01:03;22.30;;;11.57;;
36301;SDS011;22334;53.022;18.606;2023-02-23T12:03:36;25.77;;;12.13;;
36301;SDS011;22334;53.022;18.606;2023-02-23T12:06:02;27.73;;;12.43;;
36301;SDS011;22334;53.022;18.606;2023-02-23T12:08:32;26.35;;;12.95;;
36301;SDS011;22334;53.022;18.606;2023-02-23T12:11:02;27.65;;;12.52;;
36301;SDS011;22334;53.022;18.606;2023-02-23T12:16:10;25.70;;;12.98;;
36301;SDS011;22334;53.022;18.606;2023-02-23T12:23:58;23.90;;;12.40;;
36301;SDS011;22334;53.022;18.606;2023-02-23T12:26:45;22.88;;;12.30;;
36301;SDS011;22334;53.022;18.606;2023-02-23T12:31:51;28.05;;;12.57;;
36301;SDS011;22334;53.022;18.606;2023-02-23T12:34:24;26.55;;;11.57;;
36301;SDS011;22334;53.022;18.606;2023-02-23T12:36:58;27.17;;;12.20;;
36301;SDS011;22334;53.022;18.606;2023-02-23T12:39:50;23.23;;;12.48;;
36301;SDS011;22334;53.022;18.606;2023-02-23T12:45:24;27.33;;;13.63;;
36301;SDS011;22334;53.022;18.606;2023-02-23T12:48:17;24.63;;;12.75;;
36301;SDS011;22334;53.022;18.606;2023-02-23T12:50:57;24.95;;;11.93;;
36301;SDS011;22334;53.022;18.606;2023-02-23T12:53:36;25.38;;;12.10;;
36301;SDS011;22334;53.022;18.606;2023-02-23T13:01:54;25.80;;;11.88;;
36301;SDS011;22334;53.022;18.606;2023-02-23T13:07:12;26.75;;;13.32;;
36301;SDS011;22334;53.022;18.606;2023-02-23T13:10:15;27.48;;;12.48;;
36301;SDS011;22334;53.022;18.606;2023-02-23T13:32:02;36.60;;;17.50;;
36301;SDS011;22334;53.022;18.606;2023-02-23T13:34:38;31.42;;;13.65;;
36301;SDS011;22334;53.022;18.606;2023-02-23T13:37:07;24.35;;;13.60;;
36301;SDS011;22334;53.022;18.606;2023-02-23T13:39:42;32.08;;;14.32;;
36301;SDS011;22334;53.022;18.606;2023-02-23T13:50:18;28.50;;;13.27;;
36301;SDS011;22334;53.022;18.606;2023-02-23T13:52:59;25.00;;;12.50;;
36301;SDS011;22334;53.022;18.606;2023-02-23T13:58:05;25.60;;;11.98;;
36301;SDS011;22334;53.022;18.606;2023-02-23T14:00:35;36.20;;;14.90;;
36301;SDS011;22334;53.022;18.606;2023-02-23T14:03:03;38.10;;;14.30;;
36301;SDS011;22334;53.022;18.606;2023-02-23T14:05:29;28.98;;;12.95;;
36301;SDS011;22334;53.022;18.606;2023-02-23T14:08:05;29.40;;;13.48;;
36301;SDS011;22334;53.022;18.606;2023-02-23T14:10:36;24.73;;;12.02;;
36301;SDS011;22334;53.022;18.606;2023-02-23T14:18:03;29.92;;;13.52;;
36301;SDS011;22334;53.022;18.606;2023-02-23T14:20:38;26.02;;;13.13;;
36301;SDS011;22334;53.022;18.606;2023-02-23T14:23:28;26.65;;;13.30;;
36301;SDS011;22334;53.022;18.606;2023-02-23T14:28:44;24.45;;;12.52;;
36301;SDS011;22334;53.022;18.606;2023-02-23T14:31:20;26.98;;;13.93;;
36301;SDS011;22334;53.022;18.606;2023-02-23T14:38:45;33.95;;;13.95;;
36301;SDS011;22334;53.022;18.606;2023-02-23T14:41:19;24.65;;;13.10;;
36301;SDS011;22334;53.022;18.606;2023-02-23T14:47:02;29.00;;;14.10;;
36301;SDS011;22334;53.022;18.606;2023-02-23T14:49:52;29.20;;;13.85;;
36301;SDS011;22334;53.022;18.606;2023-02-23T14:52:39;28.23;;;13.45;;
36301;SDS011;22334;53.022;18.606;2023-02-23T14:58:20;30.70;;;14.60;;
36301;SDS011;22334;53.022;18.606;2023-02-23T15:00:53;30.17;;;14.50;;
36301;SDS011;22334;53.022;18.606;2023-02-23T15:03:19;29.52;;;14.82;;
36301;SDS011;22334;53.022;18.606;2023-02-23T15:05:53;48.08;;;16.55;;
36301;SDS011;22334;53.022;18.606;2023-02-23T15:08:39;26.88;;;14.32;;
36301;SDS011;22334;53.022;18.606;2023-02-23T15:11:12;26.00;;;14.32;;
36301;SDS011;22334;53.022;18.606;2023-02-23T15:13:41;36.05;;;14.38;;
36301;SDS011;22334;53.022;18.606;2023-02-23T15:18:52;30.05;;;15.20;;
36301;SDS011;22334;53.022;18.606;2023-02-23T15:21:27;35.03;;;15.98;;
36301;SDS011;22334;53.022;18.606;2023-02-23T15:26:46;35.40;;;16.65;;
36301;SDS011;22334;53.022;18.606;2023-02-23T15:29:12;38.00;;;17.52;;
36301;SDS011;22334;53.022;18.606;2023-02-23T15:31:40;31.88;;;15.27;;
36301;SDS011;22334;53.022;18.606;2023-02-23T15:34:14;34.65;;;17.00;;
36301;SDS011;22334;53.022;18.606;2023-02-23T15:36:44;36.75;;;16.20;;
36301;SDS011;22334;53.022;18.606;2023-02-23T15:39:16;33.08;;;16.38;;
36301;SDS011;22334;53.022;18.606;2023-02-23T15:41:44;38.55;;;20.08;;
36301;SDS011;22334;53.022;18.606;2023-02-23T15:44:12;34.20;;;16.95;;
36301;SDS011;22334;53.022;18.606;2023-02-23T15:46:40;37.00;;;17.92;;
36301;SDS011;22334;53.022;18.606;2023-02-23T15:49:08;33.03;;;15.98;;
36301;SDS011;22334;53.022;18.606;2023-02-23T15:51:46;35.15;;;18.20;;
36301;SDS011;22334;53.022;18.606;2023-02-23T15:54:21;33.95;;;16.83;;
36301;SDS011;22334;53.022;18.606;2023-02-23T15:56:49;33.20;;;16.88;;
36301;SDS011;22334;53.022;18.606;2023-02-23T15:59:25;30.50;;;15.45;;
36301;SDS011;22334;53.022;18.606;2023-02-23T16:01:53;34.30;;;14.90;;
36301;SDS011;22334;53.022;18.606;2023-02-23T16:04:25;31.65;;;15.45;;
36301;SDS011;22334;53.022;18.606;2023-02-23T16:06:54;35.75;;;15.50;;
36301;SDS011;22334;53.022;18.606;2023-02-23T16:09:30;43.15;;;17.65;;
36301;SDS011;22334;53.022;18.606;2023-02-23T16:12:03;33.47;;;15.35;;
36301;SDS011;22334;53.022;18.606;2023-02-23T16:14:34;37.58;;;17.63;;
36301;SDS011;22334;53.022;18.606;2023-02-23T16:19:54;33.70;;;15.63;;
36301;SDS011;22334;53.022;18.606;2023-02-23T16:22:22;33.28;;;15.60;;
36301;SDS011;22334;53.022;18.606;2023-02-23T16:24:52;40.35;;;20.25;;
36301;SDS011;22334;53.022;18.606;2023-02-23T16:27:22;32.50;;;16.65;;
36301;SDS011;22334;53.022;18.606;2023-02-23T16:29:54;32.13;;;15.27;;
36301;SDS011;22334;53.022;18.606;2023-02-23T16:32:24;30.10;;;14.60;;
36301;SDS011;22334;53.022;18.606;2023-02-23T16:35:07;33.00;;;14.00;;
36301;SDS011;22334;53.022;18.606;2023-02-23T16:37:47;35.10;;;16.05;;
36301;SDS011;22334;53.022;18.606;2023-02-23T16:40:19;33.55;;;16.05;;
36301;SDS011;22334;53.022;18.606;2023-02-23T16:42:45;33.08;;;15.57;;
36301;SDS011;22334;53.022;18.606;2023-02-23T16:45:14;32.67;;;17.02;;
36301;SDS011;22334;53.022;18.606;2023-02-23T16:47:41;35.25;;;15.05;;
36301;SDS011;22334;53.022;18.606;2023-02-23T16:50:16;31.55;;;15.02;;
36301;SDS011;22334;53.022;18.606;2023-02-23T16:52:51;35.58;;;15.90;;
36301;SDS011;22334;53.022;18.606;2023-02-23T16:55:18;43.88;;;19.95;;
36301;SDS011;22334;53.022;18.606;2023-02-23T17:00:41;35.17;;;17.52;;
36301;SDS011;22334;53.022;18.606;2023-02-23T17:03:12;33.97;;;16.35;;
36301;SDS011;22334;53.022;18.606;2023-02-23T17:06:00;32.65;;;17.45;;
36301;SDS011;22334;53.022;18.606;2023-02-23T17:08:27;49.92;;;21.70;;
36301;SDS011;22334;53.022;18.606;2023-02-23T17:11:01;38.42;;;17.60;;
36301;SDS011;22334;53.022;18.606;2023-02-23T17:13:28;44.35;;;19.65;;
36301;SDS011;22334;53.022;18.606;2023-02-23T17:16:04;31.83;;;16.58;;
36301;SDS011;22334;53.022;18.606;2023-02-23T17:18:35;35.88;;;17.60;;